createdAt,value
2022-11-19T00:01:34.620Z,18.40
2022-11-19T00:04:02.306Z,20.80
2022-11-19T00:06:30.042Z,24.20
2022-11-19T00:08:57.908Z,23.40
2022-11-19T00:11:58.956Z,23.30
2022-11-19T00:14:26.799Z,21.00
2022-11-19T00:16:54.784Z,18.60
2022-11-19T00:19:22.550Z,22.30
2022-11-19T00:21:50.260Z,22.70
2022-11-19T00:24:18.497Z,21.40
2022-11-19T00:26:46.352Z,19.10
2022-11-19T00:29:17.903Z,23.30
2022-11-19T00:31:45.973Z,22.70
2022-11-19T00:34:13.955Z,21.10
2022-11-19T00:36:41.603Z,23.30
2022-11-19T00:39:09.421Z,22.10
2022-11-19T00:41:37.060Z,26.40
2022-11-19T00:44:05.466Z,21.80
2022-11-19T00:46:33.554Z,22.90
2022-11-19T00:49:01.240Z,21.20
2022-11-19T00:51:30.535Z,21.80
2022-11-19T00:53:58.713Z,22.10
2022-11-19T00:56:27.496Z,21.50
2022-11-19T00:58:55.671Z,22.10
2022-11-19T01:01:24.617Z,23.60
2022-11-19T01:03:52.742Z,21.40
2022-11-19T01:06:21.935Z,22.60
2022-11-19T01:08:50.515Z,25.80
2022-11-19T01:11:18.289Z,23.10
2022-11-19T01:13:46.455Z,21.90
2022-11-19T01:16:15.953Z,25.10
2022-11-19T01:18:44.122Z,25.50
2022-11-19T01:21:12.604Z,25.10
2022-11-19T01:23:43.542Z,24.10
2022-11-19T01:26:12.174Z,27.90
2022-11-19T01:28:40.504Z,24.00
2022-11-19T01:31:09.193Z,22.90
2022-11-19T01:33:37.724Z,25.10
2022-11-19T01:36:10.714Z,23.40
2022-11-19T01:38:38.418Z,21.60
2022-11-19T01:41:06.491Z,22.60
2022-11-19T01:43:48.075Z,22.80
2022-11-19T01:46:23.428Z,23.30
2022-11-19T01:49:00.904Z,24.00
2022-11-19T01:51:28.466Z,26.60
2022-11-19T01:53:59.776Z,24.70
2022-11-19T01:56:27.988Z,29.10
2022-11-19T01:58:59.137Z,26.00
2022-11-19T02:01:28.471Z,27.40
2022-11-19T02:03:58.161Z,23.50
2022-11-19T02:06:25.902Z,23.20
2022-11-19T02:08:53.673Z,24.50
2022-11-19T02:11:37.148Z,24.30
2022-11-19T02:14:12.222Z,26.20
2022-11-19T02:16:48.942Z,28.90
2022-11-19T02:22:08.083Z,24.10
2022-11-19T02:24:48.796Z,27.10
2022-11-19T02:27:23.837Z,28.60
2022-11-19T02:30:03.731Z,25.50
2022-11-19T02:32:34.738Z,25.30
2022-11-19T02:35:21.170Z,24.20
2022-11-19T02:38:08.520Z,27.30
2022-11-19T02:40:48.760Z,26.40
2022-11-19T02:43:30.947Z,27.60
2022-11-19T02:46:01.324Z,26.60
2022-11-19T02:48:32.748Z,24.80
2022-11-19T02:51:02.032Z,23.20
2022-11-19T02:53:30.388Z,24.00
2022-11-19T02:56:13.518Z,26.80
2022-11-19T02:59:06.679Z,22.50
2022-11-19T03:01:54.251Z,26.10
2022-11-19T03:04:29.959Z,25.50
2022-11-19T03:07:14.626Z,23.00
2022-11-19T03:09:44.476Z,24.90
2022-11-19T03:12:24.278Z,23.00
2022-11-19T03:15:13.292Z,25.00
2022-11-19T03:17:40.990Z,23.80
2022-11-19T03:20:31.683Z,21.30
2022-11-19T03:23:03.252Z,24.20
2022-11-19T03:25:52.763Z,22.20
2022-11-19T03:28:23.068Z,23.50
2022-11-19T03:30:51.552Z,24.50
2022-11-19T03:33:24.989Z,22.30
2022-11-19T03:35:55.245Z,23.90
2022-11-19T03:38:26.290Z,22.80
2022-11-19T03:40:55.284Z,26.80
2022-11-19T03:43:26.000Z,20.50
2022-11-19T03:45:54.795Z,23.70
2022-11-19T03:48:23.179Z,24.00
2022-11-19T03:50:53.164Z,23.20
2022-11-19T03:53:21.976Z,19.50
2022-11-19T03:55:55.959Z,24.00
2022-11-19T03:58:24.363Z,22.60
2022-11-19T04:00:52.638Z,26.50
2022-11-19T04:03:20.328Z,23.20
2022-11-19T04:05:47.970Z,21.70
2022-11-19T04:08:15.680Z,22.20
2022-11-19T04:10:43.487Z,23.60
2022-11-19T04:13:11.081Z,22.10
2022-11-19T04:15:39.699Z,21.70
2022-11-19T04:18:07.550Z,26.20
2022-11-19T04:20:35.123Z,22.70
2022-11-19T04:23:02.828Z,21.90
2022-11-19T04:25:30.470Z,23.40
2022-11-19T04:27:58.025Z,19.40
2022-11-19T04:30:26.003Z,21.30
2022-11-19T04:32:53.871Z,24.10
2022-11-19T04:35:22.048Z,20.90
2022-11-19T04:37:49.956Z,23.30
2022-11-19T04:40:17.772Z,21.00
2022-11-19T04:42:45.565Z,21.80
2022-11-19T04:45:13.299Z,23.30
2022-11-19T04:47:40.959Z,25.40
2022-11-19T04:50:08.866Z,22.30
2022-11-19T04:52:40.849Z,20.10
2022-11-19T04:55:11.081Z,20.10
2022-11-19T04:57:38.770Z,23.10
2022-11-19T05:00:07.089Z,22.80
2022-11-19T05:02:35.018Z,21.00
2022-11-19T05:05:02.673Z,20.10
2022-11-19T05:07:30.440Z,22.60
2022-11-19T05:09:58.081Z,20.80
2022-11-19T05:12:25.745Z,25.10
2022-11-19T05:14:53.625Z,24.10
2022-11-19T05:17:21.479Z,23.30
2022-11-19T05:19:49.158Z,23.20
2022-11-19T05:22:17.016Z,22.50
2022-11-19T05:24:44.822Z,23.50
2022-11-19T05:27:12.429Z,19.30
2022-11-19T05:29:40.079Z,20.60
2022-11-19T05:32:07.685Z,21.10
2022-11-19T05:34:35.424Z,30.10
2022-11-19T05:37:03.014Z,24.50
2022-11-19T05:39:30.646Z,24.00
2022-11-19T05:41:58.407Z,24.50
2022-11-19T05:44:26.044Z,24.80
2022-11-19T05:46:53.934Z,25.20
2022-11-19T05:49:21.766Z,25.60
2022-11-19T05:51:49.553Z,27.50
2022-11-19T05:54:17.802Z,25.80
2022-11-19T05:56:45.573Z,29.00
2022-11-19T05:59:13.126Z,26.80
2022-11-19T06:01:40.921Z,27.60
2022-11-19T06:04:09.814Z,24.80
2022-11-19T06:06:38.085Z,26.90
2022-11-19T06:09:05.855Z,28.00
2022-11-19T06:11:50.211Z,26.30
2022-11-19T06:14:18.889Z,27.90
2022-11-19T06:16:46.711Z,27.10
2022-11-19T06:19:14.377Z,26.90
2022-11-19T06:21:42.989Z,25.40
2022-11-19T06:24:11.014Z,29.30
2022-11-19T06:26:39.304Z,29.90
2022-11-19T06:29:07.246Z,27.90
2022-11-19T06:31:35.385Z,36.60
2022-11-19T06:34:03.271Z,42.40
2022-11-19T06:36:37.374Z,41.00
2022-11-19T06:39:08.202Z,34.80
2022-11-19T06:41:36.776Z,36.20
2022-11-19T06:44:04.743Z,32.50
2022-11-19T06:46:32.446Z,33.50
2022-11-19T06:49:00.399Z,29.50
2022-11-19T06:51:28.241Z,25.60
2022-11-19T06:53:55.991Z,25.90
2022-11-19T06:56:23.866Z,28.00
2022-11-19T06:58:52.040Z,27.10
2022-11-19T07:01:19.771Z,24.70
2022-11-19T07:03:47.915Z,26.40
2022-11-19T07:06:15.553Z,26.20
2022-11-19T07:08:43.197Z,35.30
2022-11-19T07:11:26.115Z,28.40
2022-11-19T07:13:57.985Z,28.80
2022-11-19T07:16:27.205Z,25.20
2022-11-19T07:18:56.675Z,23.10
2022-11-19T07:21:24.641Z,24.30
2022-11-19T07:23:52.521Z,24.90
2022-11-19T07:26:20.479Z,29.80
2022-11-19T07:28:48.388Z,27.10
2022-11-19T07:31:16.159Z,33.80
2022-11-19T07:33:44.025Z,26.50
2022-11-19T07:36:17.951Z,20.80
2022-11-19T07:38:47.107Z,25.90
2022-11-19T07:41:33.391Z,21.80
2022-11-19T07:44:01.043Z,26.00
2022-11-19T07:46:29.004Z,24.40
2022-11-19T07:48:57.584Z,32.20
2022-11-19T07:51:25.659Z,27.50
2022-11-19T07:53:54.953Z,29.60
2022-11-19T07:56:22.969Z,27.70
2022-11-19T07:58:51.200Z,27.70
2022-11-19T08:01:23.611Z,29.50
2022-11-19T08:03:55.964Z,29.50
2022-11-19T08:06:25.992Z,26.10
2022-11-19T08:08:54.639Z,24.30
2022-11-19T08:11:23.015Z,25.70
2022-11-19T08:13:51.393Z,25.70
2022-11-19T08:16:38.321Z,26.20
2022-11-19T08:19:08.938Z,25.90
2022-11-19T08:21:37.362Z,26.20
2022-11-19T08:24:05.598Z,25.50
2022-11-19T08:26:33.251Z,25.10
2022-11-19T08:29:01.117Z,23.00
2022-11-19T08:31:29.793Z,23.00
2022-11-19T08:33:57.771Z,20.20
2022-11-19T08:36:26.044Z,20.60
2022-11-19T08:38:57.297Z,20.60
2022-11-19T08:41:46.864Z,20.80
2022-11-19T08:44:15.670Z,20.30
2022-11-19T08:46:43.829Z,23.40
2022-11-19T08:49:12.413Z,21.70
2022-11-19T08:51:40.476Z,20.60
2022-11-19T08:54:08.512Z,22.80
2022-11-19T08:56:36.186Z,18.40
2022-11-19T08:59:04.108Z,18.70
2022-11-19T09:01:31.817Z,18.40
2022-11-19T09:03:59.510Z,20.00
2022-11-19T09:06:27.566Z,18.60
2022-11-19T09:08:55.333Z,19.90
2022-11-19T09:11:23.051Z,18.90
2022-11-19T09:13:52.411Z,19.30
2022-11-19T09:16:20.360Z,18.80
2022-11-19T09:18:48.644Z,16.10
2022-11-19T09:21:16.603Z,19.00
2022-11-19T09:23:44.676Z,17.70
2022-11-19T09:26:13.734Z,17.80
2022-11-19T09:28:42.565Z,17.00
2022-11-19T09:31:14.847Z,18.00
2022-11-19T09:33:43.919Z,17.40
2022-11-19T09:36:12.398Z,18.80
2022-11-19T09:38:41.057Z,18.10
2022-11-19T09:41:18.370Z,19.40
2022-11-19T09:43:46.339Z,21.10
2022-11-19T09:46:38.979Z,20.40
2022-11-19T09:49:16.800Z,22.80
2022-11-19T09:51:49.459Z,21.10
2022-11-19T09:54:18.753Z,20.70
2022-11-19T09:56:47.651Z,22.20
2022-11-19T09:59:28.522Z,24.20
2022-11-19T10:01:56.279Z,23.60
2022-11-19T10:04:26.034Z,23.30
2022-11-19T10:07:03.228Z,25.20
2022-11-19T10:09:34.215Z,25.80
2022-11-19T10:12:22.841Z,22.60
2022-11-19T10:15:02.923Z,26.50
2022-11-19T10:17:39.796Z,24.30
2022-11-19T10:20:07.437Z,24.10
2022-11-19T10:22:57.407Z,23.80
2022-11-19T10:25:30.081Z,24.40
2022-11-19T10:28:11.092Z,26.20
2022-11-19T10:30:41.101Z,25.30
2022-11-19T10:33:19.218Z,21.50
2022-11-19T10:35:59.982Z,23.50
2022-11-19T10:38:32.662Z,22.90
2022-11-19T10:41:03.702Z,25.60
2022-11-19T10:43:41.854Z,24.80
2022-11-19T10:46:10.811Z,26.10
2022-11-19T10:48:42.866Z,27.70
2022-11-19T10:51:25.068Z,27.30
2022-11-19T10:53:53.754Z,26.80
2022-11-19T10:56:23.062Z,26.60
2022-11-19T10:58:56.652Z,26.70
2022-11-19T11:01:35.681Z,26.40
2022-11-19T11:04:13.373Z,23.90
2022-11-19T11:06:55.138Z,23.30
2022-11-19T11:09:36.807Z,20.30
2022-11-19T11:12:37.149Z,25.50
2022-11-19T11:15:26.044Z,22.00
2022-11-19T11:18:03.989Z,23.60
2022-11-19T11:20:32.959Z,26.20
2022-11-19T11:23:03.766Z,22.00
2022-11-19T11:25:33.776Z,20.30
2022-11-19T11:28:15.371Z,21.50
2022-11-19T11:30:55.383Z,21.10
2022-11-19T11:33:42.025Z,19.50
2022-11-19T11:36:19.742Z,20.60
2022-11-19T11:38:52.920Z,16.10
2022-11-19T11:42:04.248Z,17.50
2022-11-19T11:44:14.409Z,19.90
2022-11-19T11:46:47.936Z,20.90
2022-11-19T11:49:33.116Z,18.50
2022-11-19T11:52:36.830Z,18.00
2022-11-19T11:55:14.030Z,15.40
2022-11-19T11:57:51.196Z,15.40
2022-11-19T12:00:30.342Z,24.20
2022-11-19T12:03:20.923Z,18.50
2022-11-19T12:05:49.092Z,17.90
2022-11-19T12:08:35.803Z,18.00
2022-11-19T12:11:22.718Z,17.20
2022-11-19T12:14:10.729Z,18.40
2022-11-19T12:16:46.510Z,16.70
2022-11-19T12:19:14.653Z,16.70
2022-11-19T12:22:01.516Z,14.00
2022-11-19T12:24:52.424Z,15.90
2022-11-19T12:27:20.564Z,15.90
2022-11-19T12:29:57.845Z,14.60
2022-11-19T12:32:28.689Z,14.10
2022-11-19T12:35:18.663Z,13.80
2022-11-19T12:37:49.429Z,13.80
2022-11-19T12:40:40.522Z,16.10
2022-11-19T12:43:21.483Z,16.40
2022-11-19T12:45:51.483Z,14.20
2022-11-19T12:48:19.567Z,12.20
2022-11-19T12:50:47.648Z,12.60
2022-11-19T12:53:27.898Z,12.10
2022-11-19T12:55:58.729Z,12.20
2022-11-19T12:58:32.250Z,14.10
2022-11-19T13:01:02.393Z,14.30
2022-11-19T13:03:33.498Z,28.60
2022-11-19T13:06:05.118Z,18.90
2022-11-19T13:08:35.472Z,30.00
2022-11-19T13:11:09.783Z,23.70
2022-11-19T13:13:39.592Z,22.60
2022-11-19T13:16:10.036Z,15.60
2022-11-19T13:18:40.242Z,15.00
2022-11-19T13:21:28.276Z,14.40
2022-11-19T13:23:56.712Z,13.50
2022-11-19T13:26:27.508Z,13.10
2022-11-19T13:29:27.546Z,14.70
2022-11-19T13:31:56.915Z,12.00
2022-11-19T13:34:24.777Z,12.80
2022-11-19T13:37:02.540Z,11.60
2022-11-19T13:39:39.835Z,11.50
2022-11-19T13:47:37.807Z,9.60
2022-11-19T13:50:26.112Z,10.00
2022-11-19T13:52:57.355Z,10.90
2022-11-19T13:55:28.192Z,10.60
2022-11-19T13:57:57.306Z,9.20
2022-11-19T14:00:26.527Z,10.40
2022-11-19T14:03:08.277Z,9.20
2022-11-19T14:05:45.233Z,11.00
2022-11-19T14:08:13.118Z,11.00
2022-11-19T14:11:00.030Z,12.80
2022-11-19T14:13:48.070Z,13.10
2022-11-19T14:16:34.586Z,14.80
2022-11-19T14:19:22.928Z,11.80
2022-11-19T14:22:12.705Z,16.60
2022-11-19T14:25:00.529Z,13.40
2022-11-19T14:27:30.147Z,14.10
2022-11-19T14:30:00.666Z,13.50
2022-11-19T14:32:30.577Z,12.80
2022-11-19T14:35:01.719Z,14.80
2022-11-19T14:37:43.685Z,11.70
2022-11-19T14:40:23.875Z,10.30
2022-11-19T14:43:19.918Z,12.80
2022-11-19T14:46:17.467Z,13.30
2022-11-19T14:48:46.173Z,11.70
2022-11-19T14:51:35.693Z,14.40
2022-11-19T14:54:05.222Z,15.70
2022-11-19T14:56:35.668Z,16.40
2022-11-19T14:59:16.005Z,17.20
2022-11-19T15:01:50.222Z,17.10
2022-11-19T15:04:21.087Z,15.80
2022-11-19T15:06:51.461Z,17.30
2022-11-19T15:09:56.317Z,17.20
2022-11-19T15:12:33.395Z,23.00
2022-11-19T15:17:35.397Z,19.20
2022-11-19T15:20:05.957Z,18.80
2022-11-19T15:23:06.022Z,20.50
2022-11-19T15:25:33.979Z,21.80
2022-11-19T15:28:06.052Z,21.40
2022-11-19T15:30:41.151Z,20.90
2022-11-19T15:33:21.139Z,22.10
2022-11-19T15:35:49.107Z,21.80
2022-11-19T15:38:20.444Z,18.90
2022-11-19T15:40:55.178Z,21.90
2022-11-19T15:43:43.630Z,20.30
2022-11-19T15:46:30.808Z,16.60
2022-11-19T15:49:07.930Z,19.70
